createdAt,value
2022-11-05T00:01:10.455Z,97078.97
2022-11-05T00:03:36.993Z,97077.78
2022-11-05T00:06:03.819Z,97077.88
2022-11-05T00:08:30.511Z,97084.44
2022-11-05T00:10:57.160Z,97093.75
2022-11-05T00:13:25.199Z,97100.13
2022-11-05T00:15:52.007Z,97100.69
2022-11-05T00:18:18.803Z,97106.69
2022-11-05T00:20:45.346Z,97102.25
2022-11-05T00:23:12.197Z,97114.03
2022-11-05T00:25:38.960Z,97114.56
2022-11-05T00:28:05.514Z,97108.22
2022-11-05T00:30:33.395Z,97104.34
2022-11-05T00:33:01.897Z,97120.63
2022-11-05T00:35:28.437Z,97120.84
2022-11-05T00:37:54.973Z,97122.78
2022-11-05T00:40:21.527Z,97128.78
2022-11-05T00:42:48.108Z,97128.19
2022-11-05T00:45:14.771Z,97130.91
2022-11-05T00:47:42.737Z,97130.44
2022-11-05T00:50:09.247Z,97142.78
2022-11-05T00:52:35.815Z,97138.09
2022-11-05T00:55:02.393Z,97141.94
2022-11-05T00:57:28.917Z,97150.72
2022-11-05T00:59:55.413Z,97147.16
2022-11-05T01:02:22.140Z,97158.41
2022-11-05T01:04:50.120Z,97157.56
2022-11-05T01:07:16.639Z,97161.66
2022-11-05T01:09:43.165Z,97156.97
2022-11-05T01:12:09.703Z,97151.22
2022-11-05T01:14:36.254Z,97147.56
2022-11-05T01:17:02.830Z,97153.06
2022-11-05T01:19:29.584Z,97157.97
2022-11-05T01:21:57.479Z,97156.66
2022-11-05T01:24:24.019Z,97161.84
2022-11-05T01:26:50.580Z,97161.22
2022-11-05T01:29:17.117Z,97157.94
2022-11-05T01:31:43.631Z,97154.38
2022-11-05T01:34:10.176Z,97149.69
2022-11-05T01:36:36.735Z,97163.38
2022-11-05T01:39:04.667Z,97165.09
2022-11-05T01:41:31.227Z,97157.38
2022-11-05T01:43:59.403Z,97164.31
2022-11-05T01:46:29.292Z,97161.28
2022-11-05T01:49:03.173Z,97165.63
2022-11-05T01:51:30.859Z,97183.09
2022-11-05T01:54:01.394Z,97177.06
2022-11-05T01:56:32.034Z,97182.53
2022-11-05T01:59:01.726Z,97187.53
2022-11-05T02:01:28.359Z,97181.63
2022-11-05T02:03:59.467Z,97179.72
2022-11-05T02:06:30.142Z,97190.16
2022-11-05T02:09:01.801Z,97194.81
2022-11-05T02:11:29.797Z,97192.00
2022-11-05T02:13:56.354Z,97190.19
2022-11-05T02:16:36.601Z,97191.66
2022-11-05T02:19:24.683Z,97188.97
2022-11-05T02:22:28.804Z,97189.19
2022-11-05T02:25:21.543Z,97185.66
2022-11-05T02:28:11.678Z,97193.44
2022-11-05T02:30:49.481Z,97196.69
2022-11-05T02:33:31.022Z,97193.53
2022-11-05T02:36:16.509Z,97192.13
2022-11-05T02:38:53.096Z,97190.00
2022-11-05T02:41:27.416Z,97188.97
2022-11-05T02:44:06.061Z,97185.69
2022-11-05T02:46:40.171Z,97193.34
2022-11-05T02:49:18.445Z,97191.53
2022-11-05T02:51:51.392Z,97194.59
2022-11-05T02:54:23.143Z,97197.56
2022-11-05T02:56:52.627Z,97201.13
2022-11-05T02:59:19.226Z,97196.47
2022-11-05T03:01:48.386Z,97193.28
2022-11-05T03:04:19.265Z,97194.16
2022-11-05T03:07:17.041Z,97188.66
2022-11-05T03:10:13.963Z,97190.31
2022-11-05T03:12:52.000Z,97196.09
2022-11-05T03:15:30.177Z,97202.69
2022-11-05T03:18:07.025Z,97203.81
2022-11-05T03:20:37.611Z,97200.53
2022-11-05T03:23:12.771Z,97211.50
2022-11-05T03:25:47.362Z,97209.34
2022-11-05T03:28:16.516Z,97210.72
2022-11-05T03:30:44.932Z,97207.44
2022-11-05T03:33:17.068Z,97214.78
2022-11-05T03:35:47.922Z,97218.94
2022-11-05T03:38:20.283Z,97215.63
2022-11-05T03:40:49.540Z,97221.34
2022-11-05T03:43:17.485Z,97225.00
2022-11-05T03:45:47.653Z,97223.31
2022-11-05T03:48:18.447Z,97233.72
2022-11-05T03:50:52.831Z,97239.53
2022-11-05T03:53:25.006Z,97245.00
2022-11-05T03:55:59.255Z,97246.38
2022-11-05T03:58:26.995Z,97250.00
2022-11-05T04:00:53.799Z,97256.84
2022-11-05T04:03:21.676Z,97268.03
2022-11-05T04:05:48.659Z,97274.66
2022-11-05T04:08:15.193Z,97275.19
2022-11-05T04:10:43.519Z,97285.38
2022-11-05T04:13:15.858Z,97287.81
2022-11-05T04:15:42.410Z,97294.97
2022-11-05T04:18:08.956Z,97296.34
2022-11-05T04:20:36.907Z,97296.88
2022-11-05T04:23:05.233Z,97300.13
2022-11-05T04:25:31.819Z,97296.56
2022-11-05T04:27:59.214Z,97300.13
2022-11-05T04:30:26.568Z,97301.25
2022-11-05T04:32:58.305Z,97303.94
2022-11-05T04:35:25.904Z,97305.88
2022-11-05T04:37:53.926Z,97315.00
2022-11-05T04:40:20.520Z,97309.47
2022-11-05T04:42:47.085Z,97315.81
2022-11-05T04:45:13.755Z,97315.25
2022-11-05T04:47:40.338Z,97319.91
2022-11-05T04:50:07.273Z,97317.91
2022-11-05T04:52:33.794Z,97326.31
2022-11-05T04:55:01.693Z,97331.25
2022-11-05T04:57:28.234Z,97324.97
2022-11-05T04:59:54.910Z,97335.69
2022-11-05T05:02:21.607Z,97331.56
2022-11-05T05:04:48.219Z,97327.47
2022-11-05T05:07:14.821Z,97322.78
2022-11-05T05:09:41.403Z,97329.66
2022-11-05T05:12:09.342Z,97328.28
2022-11-05T05:14:36.147Z,97328.84
2022-11-05T05:17:02.704Z,97335.13
2022-11-05T05:19:29.259Z,97345.00
2022-11-05T05:21:55.818Z,97346.66
2022-11-05T05:24:22.416Z,97345.00
2022-11-05T05:26:49.873Z,97347.47
2022-11-05T05:29:18.150Z,97347.47
2022-11-05T05:31:44.763Z,97348.88
2022-11-05T05:34:12.949Z,97357.06
2022-11-05T05:36:39.784Z,97350.19
2022-11-05T05:39:07.713Z,97354.31
2022-11-05T05:41:34.471Z,97353.75
2022-11-05T05:44:01.025Z,97356.50
2022-11-05T05:46:28.929Z,97358.16
2022-11-05T05:48:55.487Z,97357.06
2022-11-05T05:51:22.075Z,97355.59
2022-11-05T05:53:48.614Z,97357.00
2022-11-05T05:56:15.262Z,97359.75
2022-11-05T05:58:41.897Z,97352.09
2022-11-05T06:01:17.173Z,97360.63
2022-11-05T06:03:47.141Z,97355.38
2022-11-05T06:06:15.009Z,97367.47
2022-11-05T06:08:42.172Z,97374.38
2022-11-05T06:11:08.896Z,97384.22
2022-11-05T06:13:36.140Z,97381.78
2022-11-05T06:16:04.071Z,97386.47
2022-11-05T06:18:31.397Z,97386.47
2022-11-05T06:21:03.068Z,97394.41
2022-11-05T06:23:30.569Z,97394.97
2022-11-05T06:25:59.765Z,97404.56
2022-11-05T06:28:26.495Z,97398.75
2022-11-05T06:30:53.102Z,97402.63
2022-11-05T06:33:19.655Z,97399.56
2022-11-05T06:35:46.217Z,97403.94
2022-11-05T06:38:14.262Z,97404.19
2022-11-05T06:40:40.926Z,97408.81
2022-11-05T06:43:07.465Z,97411.28
2022-11-05T06:45:34.018Z,97421.97
2022-11-05T06:48:00.718Z,97428.81
2022-11-05T06:50:28.320Z,97432.38
2022-11-05T06:52:55.623Z,97438.09
2022-11-05T06:55:23.826Z,97432.28
2022-11-05T06:57:50.486Z,97432.28
2022-11-05T07:00:17.608Z,97439.09
2022-11-05T07:02:44.193Z,97448.72
2022-11-05T07:05:10.726Z,97457.44
2022-11-05T07:07:37.290Z,97457.41
2022-11-05T07:10:04.551Z,97467.78
2022-11-05T07:12:32.633Z,97469.81
2022-11-05T07:14:59.280Z,97475.03
2022-11-05T07:17:26.040Z,97477.16
2022-11-05T07:19:52.572Z,97474.31
2022-11-05T07:22:19.149Z,97480.53
2022-11-05T07:24:45.729Z,97486.44
2022-11-05T07:27:12.285Z,97489.16
2022-11-05T07:29:40.214Z,97489.59
2022-11-05T07:32:06.852Z,97492.28
2022-11-05T07:34:33.588Z,97491.66
2022-11-05T07:37:00.154Z,97485.34
2022-11-05T07:39:26.663Z,97483.84
2022-11-05T07:41:53.271Z,97489.91
2022-11-05T07:44:19.835Z,97499.13
2022-11-05T07:46:47.749Z,97496.63
2022-11-05T07:49:23.601Z,97517.06
2022-11-05T07:51:50.222Z,97518.56
2022-11-05T07:54:16.764Z,97521.44
2022-11-05T07:56:43.377Z,97518.44
2022-11-05T07:59:09.945Z,97528.38
2022-11-05T08:01:36.700Z,97530.88
2022-11-05T08:04:04.888Z,97526.19
2022-11-05T08:06:31.616Z,97542.38
2022-11-05T08:08:58.217Z,97537.06
2022-11-05T08:11:24.849Z,97541.19
2022-11-05T08:13:51.388Z,97535.63
2022-11-05T08:16:17.948Z,97538.63
2022-11-05T08:18:44.493Z,97537.75
2022-11-05T08:21:12.403Z,97541.28
2022-11-05T08:23:38.913Z,97547.06
2022-11-05T08:26:05.754Z,97547.91
2022-11-05T08:28:32.323Z,97550.13
2022-11-05T08:30:59.063Z,97545.06
2022-11-05T08:33:26.409Z,97543.09
2022-11-05T08:35:53.066Z,97544.66
2022-11-05T08:38:21.033Z,97554.28
2022-11-05T08:40:55.666Z,97560.34
2022-11-05T08:43:22.383Z,97572.41
2022-11-05T08:45:49.355Z,97575.13
2022-11-05T08:48:17.570Z,97567.28
2022-11-05T08:50:45.932Z,97577.47
2022-11-05T08:53:13.690Z,97573.66
2022-11-05T08:55:41.890Z,97578.66
2022-11-05T08:58:11.258Z,97578.69
2022-11-05T09:00:38.852Z,97581.94
2022-11-05T09:03:07.168Z,97589.09
2022-11-05T09:05:35.796Z,97579.13
2022-11-05T09:08:02.378Z,97581.31
2022-11-05T09:10:28.951Z,97576.78
2022-11-05T09:12:56.922Z,97579.47
2022-11-05T09:15:23.808Z,97582.09
2022-11-05T09:17:50.645Z,97585.16
2022-11-05T09:20:17.225Z,97588.47
2022-11-05T09:22:43.861Z,97588.38
2022-11-05T09:25:10.691Z,97590.25
2022-11-05T09:27:37.291Z,97590.97
2022-11-05T09:30:06.299Z,97585.66
2022-11-05T09:32:33.638Z,97589.44
2022-11-05T09:35:00.194Z,97585.13
2022-11-05T09:37:26.946Z,97588.16
2022-11-05T09:39:53.783Z,97590.59
2022-11-05T09:42:23.845Z,97596.59
2022-11-05T09:44:54.663Z,97604.03
2022-11-05T09:47:29.270Z,97599.19
2022-11-05T09:49:58.798Z,97609.97
2022-11-05T09:52:27.814Z,97613.16
2022-11-05T09:54:55.584Z,97615.00
2022-11-05T09:57:25.552Z,97613.03
2022-11-05T09:59:54.332Z,97604.44
2022-11-05T10:02:26.648Z,97616.22
2022-11-05T10:04:56.788Z,97618.66
2022-11-05T10:07:26.252Z,97612.63
2022-11-05T10:09:57.518Z,97618.28
2022-11-05T10:12:28.537Z,97621.03
2022-11-05T10:15:04.711Z,97619.31
2022-11-05T10:17:39.064Z,97616.91
2022-11-05T10:20:14.205Z,97616.81
2022-11-05T10:22:43.961Z,97624.41
2022-11-05T10:25:17.729Z,97620.94
2022-11-05T10:27:50.261Z,97622.78
2022-11-05T10:30:16.865Z,97627.25
2022-11-05T10:32:46.659Z,97628.47
2022-11-05T10:35:15.769Z,97637.34
2022-11-05T10:37:42.357Z,97633.91
2022-11-05T10:40:16.774Z,97638.84
2022-11-05T10:42:54.219Z,97643.53
2022-11-05T10:45:29.945Z,97643.34
2022-11-05T10:48:16.579Z,97645.13
2022-11-05T10:50:44.249Z,97634.13
2022-11-05T10:53:14.641Z,97634.88
2022-11-05T10:55:44.107Z,97640.03
2022-11-05T10:58:19.923Z,97641.59
2022-11-05T11:01:01.685Z,97643.41
2022-11-05T11:03:35.414Z,97634.16
2022-11-05T11:06:05.110Z,97642.72
2022-11-05T11:08:35.002Z,97642.00
2022-11-05T11:11:03.814Z,97642.00
2022-11-05T11:13:49.339Z,97638.84
2022-11-05T11:16:20.085Z,97639.03
2022-11-05T11:18:53.207Z,97640.09
2022-11-05T11:21:20.938Z,97633.34
2022-11-05T11:23:54.778Z,97631.94
2022-11-05T11:26:23.346Z,97636.41
2022-11-05T11:28:57.572Z,97634.72
2022-11-05T11:31:26.504Z,97629.88
2022-11-05T11:33:58.304Z,97631.91
2022-11-05T11:36:31.582Z,97641.91
2022-11-05T11:38:59.597Z,97635.03
2022-11-05T11:41:30.798Z,97633.41
2022-11-05T11:44:02.899Z,97637.94
2022-11-05T11:46:32.739Z,97641.69
2022-11-05T11:49:01.071Z,97643.03
2022-11-05T11:51:33.399Z,97641.88
2022-11-05T11:54:01.690Z,97648.41
2022-11-05T11:56:29.103Z,97653.41
2022-11-05T11:58:57.675Z,97651.09
2022-11-05T12:02:06.435Z,97652.44
2022-11-05T12:05:10.107Z,97657.13
2022-11-05T12:07:48.609Z,97648.56
2022-11-05T12:10:28.287Z,97649.22
2022-11-05T12:13:11.466Z,97654.16
2022-11-05T12:15:49.046Z,97642.81
2022-11-05T12:18:25.123Z,97648.88
2022-11-05T12:21:05.641Z,97648.25
2022-11-05T12:23:47.310Z,97655.00
2022-11-05T12:26:23.345Z,97645.88
2022-11-05T12:31:58.732Z,97650.72
2022-11-05T12:34:42.324Z,97653.47
2022-11-05T12:37:22.836Z,97654.63
2022-11-05T12:40:01.255Z,97647.66
2022-11-05T12:42:41.979Z,97648.19
2022-11-05T12:45:22.436Z,97656.78
2022-11-05T12:48:16.072Z,97651.09
2022-11-05T12:50:45.181Z,97661.69
2022-11-05T12:53:35.992Z,97652.88
2022-11-05T12:56:11.209Z,97658.94
2022-11-05T12:58:42.082Z,97661.09
2022-11-05T13:01:13.333Z,97664.97
2022-11-05T13:03:44.301Z,97672.75
2022-11-05T13:06:14.863Z,97670.28
2022-11-05T13:08:50.896Z,97669.38
2022-11-05T13:11:23.107Z,97664.59
2022-11-05T13:14:06.380Z,97660.97
2022-11-05T13:16:35.912Z,97663.13
2022-11-05T13:19:12.356Z,97676.56
2022-11-05T13:21:40.485Z,97671.25
2022-11-05T13:24:16.493Z,97672.38
2022-11-05T13:26:48.245Z,97672.16
2022-11-05T13:29:19.279Z,97667.97
2022-11-05T13:31:51.857Z,97666.47
2022-11-05T13:34:18.412Z,97678.50
2022-11-05T13:36:52.407Z,97673.03
2022-11-05T13:39:24.711Z,97672.09
2022-11-05T13:42:07.818Z,97666.88
2022-11-05T13:45:02.497Z,97666.63
2022-11-05T13:47:55.814Z,97673.06
2022-11-05T13:50:44.751Z,97660.69
2022-11-05T13:53:58.069Z,97657.84
2022-11-05T13:56:50.197Z,97665.00
2022-11-05T13:59:58.483Z,97669.13
2022-11-05T14:02:28.615Z,97671.97
2022-11-05T14:05:01.009Z,97684.47
2022-11-05T14:07:30.180Z,97678.25
2022-11-05T14:09:59.510Z,97687.06
2022-11-05T14:12:31.087Z,97687.03
2022-11-05T14:15:02.751Z,97686.09
2022-11-05T14:17:34.175Z,97684.22
2022-11-05T14:20:25.695Z,97691.09
2022-11-05T14:22:53.152Z,97696.28
2022-11-05T14:25:59.225Z,97691.56
2022-11-05T14:28:44.335Z,97701.06
2022-11-05T14:31:47.357Z,97692.50
2022-11-05T14:34:22.595Z,97700.84
2022-11-05T14:37:14.000Z,97705.56
2022-11-05T14:39:41.431Z,97703.84
2022-11-05T14:42:15.659Z,97707.41
2022-11-05T14:45:00.637Z,97708.00
2022-11-05T14:47:30.940Z,97709.88
2022-11-05T14:50:01.787Z,97712.31
2022-11-05T14:52:28.839Z,97714.25
2022-11-05T14:54:57.838Z,97719.63
2022-11-05T14:58:01.475Z,97723.66
2022-11-05T15:00:49.356Z,97735.06
2022-11-05T15:04:02.913Z,97736.59
2022-11-05T15:06:32.947Z,97736.16
2022-11-05T15:09:25.390Z,97741.03
2022-11-05T15:12:02.585Z,97740.75
2022-11-05T15:14:33.667Z,97735.22
2022-11-05T15:17:14.023Z,97746.50
2022-11-05T15:19:42.132Z,97741.94
2022-11-05T15:22:20.034Z,97742.41
2022-11-05T15:24:47.576Z,97738.13
2022-11-05T15:27:19.696Z,97743.34
2022-11-05T15:29:46.387Z,97749.50
2022-11-05T15:32:17.879Z,97746.47
2022-11-05T15:34:52.171Z,97752.03
2022-11-05T15:37:22.069Z,97750.09
2022-11-05T15:39:50.386Z,97757.50
2022-11-05T15:42:19.120Z,97761.06
2022-11-05T15:44:47.368Z,97753.16
2022-11-05T15:47:22.543Z,97762.88
2022-11-05T15:49:51.904Z,97761.25
2022-11-05T15:52:20.827Z,97756.81
2022-11-05T15:55:07.461Z,97759.00
2022-11-05T15:57:39.252Z,97762.28
2022-11-05T16:00:17.550Z,97762.06
2022-11-05T16:02:51.800Z,97765.44
2022-11-05T16:05:18.605Z,97763.63
2022-11-05T16:07:46.839Z,97766.16
2022-11-05T16:10:19.219Z,97768.69
2022-11-05T16:12:45.866Z,97772.56
2022-11-05T16:15:22.840Z,97766.47
2022-11-05T16:17:54.475Z,97775.00
2022-11-05T16:20:25.056Z,97771.75
2022-11-05T16:22:53.800Z,97771.44
2022-11-05T16:25:23.669Z,97774.22
2022-11-05T16:27:50.269Z,97781.50
2022-11-05T16:30:18.386Z,97782.66
2022-11-05T16:32:45.584Z,97781.84
2022-11-05T16:35:19.742Z,97791.84
2022-11-05T16:37:51.833Z,97786.00
2022-11-05T16:40:21.511Z,97777.75
2022-11-05T16:42:48.840Z,97789.28
2022-11-05T16:45:17.907Z,97788.44
2022-11-05T16:47:45.436Z,97786.84
2022-11-05T16:50:23.399Z,97780.75
2022-11-05T16:52:50.731Z,97794.25
2022-11-05T16:55:18.533Z,97788.50
2022-11-05T16:57:48.737Z,97798.75
2022-11-05T17:00:18.005Z,97795.69
2022-11-05T17:02:45.175Z,97805.63
2022-11-05T17:05:19.663Z,97806.94
2022-11-05T17:07:46.934Z,97804.50
2022-11-05T17:10:13.585Z,97812.47
2022-11-05T17:12:41.012Z,97808.63
2022-11-05T17:15:18.361Z,97813.59
2022-11-05T17:17:45.697Z,97814.72
2022-11-05T17:20:20.537Z,97814.97
2022-11-05T17:22:48.507Z,97819.19
2022-11-05T17:25:15.134Z,97816.47
2022-11-05T17:27:41.665Z,97817.81
2022-11-05T17:30:10.252Z,97827.19
2022-11-05T17:32:36.874Z,97819.72
2022-11-05T17:35:03.997Z,97823.03
2022-11-05T17:37:30.620Z,97824.16
2022-11-05T17:39:58.665Z,97832.69
2022-11-05T17:42:25.222Z,97828.00
2022-11-05T17:44:51.762Z,97832.72
2022-11-05T17:47:18.292Z,97841.84
2022-11-05T17:49:44.839Z,97836.66
2022-11-05T17:52:11.452Z,97839.97
2022-11-05T17:54:38.012Z,97840.81
2022-11-05T17:57:05.907Z,97847.13
2022-11-05T17:59:32.501Z,97854.03
2022-11-05T18:01:59.108Z,97846.03
2022-11-05T18:04:25.763Z,97855.97
2022-11-05T18:06:52.331Z,97859.53
2022-11-05T18:09:18.939Z,97861.16
2022-11-05T18:11:45.742Z,97858.41
2022-11-05T18:14:13.633Z,97858.41
2022-11-05T18:16:40.199Z,97866.13
2022-11-05T18:19:06.763Z,97866.41
2022-11-05T18:21:33.331Z,97869.44
2022-11-05T18:24:03.152Z,97871.06
2022-11-05T18:26:29.687Z,97880.75
2022-11-05T18:28:56.228Z,97881.84
2022-11-05T18:31:24.103Z,97878.03
2022-11-05T18:33:51.028Z,97885.44
2022-11-05T18:36:17.958Z,97882.41
2022-11-05T18:38:44.519Z,97886.03
2022-11-05T18:41:11.077Z,97880.22
2022-11-05T18:43:37.616Z,97881.59
2022-11-05T18:46:04.232Z,97891.53
2022-11-05T18:48:32.197Z,97885.44
2022-11-05T18:51:01.833Z,97892.59
2022-11-05T18:53:28.819Z,97892.09
2022-11-05T18:55:55.357Z,97884.66
2022-11-05T18:58:21.866Z,97889.84
2022-11-05T19:00:48.402Z,97887.41
2022-11-05T19:03:14.914Z,97896.50
2022-11-05T19:05:42.818Z,97886.03
2022-11-05T19:08:09.601Z,97889.84
2022-11-05T19:10:39.564Z,97895.13
2022-11-05T19:13:06.119Z,97894.88
2022-11-05T19:15:32.711Z,97891.56
2022-11-05T19:17:59.291Z,97894.31
2022-11-05T19:20:26.007Z,97892.09
2022-11-05T19:22:53.895Z,97893.19
2022-11-05T19:25:20.512Z,97898.69
2022-11-05T19:27:47.337Z,97893.75
2022-11-05T19:30:13.998Z,97892.09
2022-11-05T19:32:40.559Z,97892.38
2022-11-05T19:35:07.798Z,97902.56
2022-11-05T19:37:34.411Z,97902.31
2022-11-05T19:40:02.393Z,97909.75
2022-11-05T19:42:28.986Z,97913.91
2022-11-05T19:44:55.666Z,97909.22
2022-11-05T19:47:22.208Z,97911.16
2022-11-05T19:49:48.745Z,97921.06
2022-11-05T19:52:15.326Z,97920.78
2022-11-05T19:54:42.013Z,97912.78
2022-11-05T19:57:09.907Z,97921.06
2022-11-05T19:59:36.431Z,97916.66
2022-11-05T20:02:03.198Z,97924.94
2022-11-05T20:04:30.058Z,97920.53
2022-11-05T20:06:56.683Z,97922.47
2022-11-05T20:09:23.596Z,97931.81
2022-11-05T20:11:51.025Z,97929.34
2022-11-05T20:14:18.905Z,97932.13
2022-11-05T20:16:46.356Z,97931.31
2022-11-05T20:19:15.559Z,97930.75
2022-11-05T20:21:42.606Z,97929.66
2022-11-05T20:24:11.222Z,97931.03
2022-11-05T20:26:37.873Z,97931.84
2022-11-05T20:29:04.463Z,97927.47
2022-11-05T20:31:32.689Z,97932.16
2022-11-05T20:33:59.527Z,97924.16
2022-11-05T20:36:26.641Z,97929.94
2022-11-05T20:38:55.670Z,97923.91
2022-11-05T20:41:22.530Z,97931.59
2022-11-05T20:43:49.760Z,97925.81
2022-11-05T20:46:19.091Z,97926.94
2022-11-05T20:48:47.140Z,97931.34
2022-11-05T20:51:19.388Z,97935.16
2022-11-05T20:53:46.663Z,97933.81
2022-11-05T20:56:16.969Z,97940.13
2022-11-05T20:58:43.955Z,97949.75
2022-11-05T21:01:12.201Z,97954.97
2022-11-05T21:03:39.080Z,97956.56
2022-11-05T21:06:07.361Z,97964.81
2022-11-05T21:08:34.298Z,97967.28
2022-11-05T21:11:01.127Z,97971.69
2022-11-05T21:13:27.786Z,97975.00
2022-11-05T21:15:56.483Z,97970.31
2022-11-05T21:18:25.102Z,97975.25
2022-11-05T21:20:52.363Z,97979.34
2022-11-05T21:23:20.301Z,97969.16
2022-11-05T21:25:47.370Z,97970.84
2022-11-05T21:28:15.659Z,97974.69
2022-11-05T21:30:44.257Z,97963.41
2022-11-05T21:33:11.574Z,97966.97
2022-11-05T21:35:39.390Z,97964.22
2022-11-05T21:38:06.010Z,97960.91
2022-11-05T21:40:33.966Z,97959.00
2022-11-05T21:43:00.506Z,97953.53
2022-11-05T21:45:27.192Z,97952.66
2022-11-05T21:47:53.797Z,97956.81
2022-11-05T21:50:22.053Z,97954.34
2022-11-05T21:52:48.731Z,97951.31
2022-11-05T21:55:15.319Z,97952.97
2022-11-05T21:57:43.248Z,97943.31
2022-11-05T22:00:11.279Z,97948.56
2022-11-05T22:02:38.014Z,97944.16
2022-11-05T22:05:06.194Z,97949.09
2022-11-05T22:07:34.649Z,97939.47
2022-11-05T22:10:02.165Z,97937.81
2022-11-05T22:12:29.120Z,97946.59
2022-11-05T22:14:57.112Z,97942.22
2022-11-05T22:17:24.250Z,97940.53
2022-11-05T22:19:51.135Z,97940.00
2022-11-05T22:22:17.710Z,97932.84
2022-11-05T22:24:44.660Z,97936.44
2022-11-05T22:27:13.515Z,97942.16
2022-11-05T22:29:40.253Z,97942.97
2022-11-05T22:32:10.273Z,97944.88
2022-11-05T22:34:36.861Z,97949.31
2022-11-05T22:37:03.617Z,97951.25
2022-11-05T22:39:30.212Z,97942.19
2022-11-05T22:41:57.581Z,97949.88
2022-11-05T22:44:25.676Z,97961.44
2022-11-05T22:46:52.839Z,97964.72
2022-11-05T22:49:21.058Z,97965.81
2022-11-05T22:51:47.735Z,97966.34
2022-11-05T22:54:14.308Z,97966.34
2022-11-05T22:56:42.665Z,97961.16
2022-11-05T22:59:12.583Z,97958.16
2022-11-05T23:01:39.436Z,97969.97
2022-11-05T23:04:06.074Z,97963.91
2022-11-05T23:06:34.285Z,97959.50
2022-11-05T23:09:01.796Z,97957.03
2022-11-05T23:11:28.368Z,97957.31
2022-11-05T23:13:55.966Z,97957.31
2022-11-05T23:16:22.537Z,97956.19
2022-11-05T23:18:49.088Z,97963.59
2022-11-05T23:21:19.224Z,97958.91
2022-11-05T23:23:50.676Z,97958.09
2022-11-05T23:26:17.244Z,97970.16
2022-11-05T23:28:44.215Z,97972.31
2022-11-05T23:31:10.759Z,97958.84
2022-11-05T23:33:37.353Z,97959.97
2022-11-05T23:36:04.198Z,97951.47
2022-11-05T23:38:30.736Z,97951.75
2022-11-05T23:41:01.197Z,97950.41
2022-11-05T23:43:27.793Z,97955.63
2022-11-05T23:45:54.433Z,97956.44
2022-11-05T23:48:25.969Z,97955.06
2022-11-05T23:50:58.472Z,97949.31
2022-11-05T23:53:25.948Z,97955.09
2022-11-05T23:55:52.783Z,97955.91
2022-11-05T23:58:20.780Z,97961.38
